createdAt,value
2019-05-25T00:02:09.159Z,99.90
2019-05-25T00:04:38.574Z,99.90
2019-05-25T00:07:07.959Z,99.90
2019-05-25T00:09:37.419Z,99.90
2019-05-25T00:12:06.929Z,99.90
2019-05-25T00:14:36.382Z,99.90
2019-05-25T00:17:05.842Z,99.90
2019-05-25T00:19:35.229Z,99.90
2019-05-25T00:22:04.689Z,99.90
2019-05-25T00:24:34.066Z,99.90
2019-05-25T00:27:03.719Z,99.90
2019-05-25T00:29:33.057Z,99.90
2019-05-25T00:32:02.442Z,99.90
2019-05-25T00:34:31.874Z,99.90
2019-05-25T00:37:01.270Z,99.90
2019-05-25T00:39:30.672Z,99.90
2019-05-25T00:42:00.056Z,99.90
2019-05-25T00:44:29.490Z,99.90
2019-05-25T00:46:58.896Z,99.90
2019-05-25T00:49:28.293Z,99.90
2019-05-25T00:51:57.667Z,99.90
2019-05-25T00:54:28.326Z,99.90
2019-05-25T00:56:57.815Z,99.90
2019-05-25T00:59:27.194Z,99.90
2019-05-25T01:01:56.607Z,99.90
2019-05-25T01:04:26.066Z,99.90
2019-05-25T01:06:55.532Z,99.90
2019-05-25T01:09:24.916Z,99.90
2019-05-25T01:11:55.304Z,99.90
2019-05-25T01:14:24.688Z,99.90
2019-05-25T01:16:54.073Z,99.90
2019-05-25T01:19:23.450Z,99.90
2019-05-25T01:21:52.841Z,99.90
2019-05-25T01:24:22.235Z,99.90
2019-05-25T01:26:51.610Z,99.90
2019-05-25T01:29:21.033Z,99.90
2019-05-25T01:31:50.422Z,99.90
2019-05-25T01:34:19.838Z,99.90
2019-05-25T01:36:49.230Z,99.90
2019-05-25T01:39:18.661Z,99.90
2019-05-25T01:41:48.061Z,99.90
2019-05-25T01:44:17.454Z,99.90
2019-05-25T01:46:46.891Z,99.90
2019-05-25T01:49:16.282Z,99.90
2019-05-25T01:51:45.760Z,99.90
2019-05-25T01:54:15.133Z,99.90
2019-05-25T01:56:44.511Z,99.90
2019-05-25T01:59:13.879Z,99.90
2019-05-25T02:01:43.340Z,99.90
2019-05-25T02:04:12.776Z,99.90
2019-05-25T02:06:42.139Z,99.90
2019-05-25T02:09:11.564Z,99.90
2019-05-25T02:11:40.937Z,99.90
2019-05-25T02:14:10.353Z,99.90
2019-05-25T02:16:39.734Z,99.90
2019-05-25T02:19:09.157Z,99.90
2019-05-25T02:21:38.572Z,99.90
2019-05-25T02:24:07.999Z,99.90
2019-05-25T02:26:37.383Z,99.90
2019-05-25T02:29:06.754Z,99.90
2019-05-25T02:31:36.183Z,99.90
2019-05-25T02:34:05.764Z,99.90
2019-05-25T02:36:35.219Z,99.90
2019-05-25T02:39:09.331Z,99.90
2019-05-25T02:41:38.825Z,99.90
2019-05-25T02:44:08.337Z,99.90
2019-05-25T02:46:37.701Z,99.90
2019-05-25T02:49:07.229Z,99.90
2019-05-25T02:51:36.614Z,99.90
2019-05-25T02:54:06.162Z,99.90
2019-05-25T02:56:35.490Z,99.90
2019-05-25T02:59:05.023Z,99.90
2019-05-25T03:01:34.413Z,99.90
2019-05-25T03:04:04.003Z,99.90
2019-05-25T03:06:34.614Z,99.90
2019-05-25T03:09:07.374Z,99.90
2019-05-25T03:11:59.304Z,99.90
2019-05-25T03:14:28.802Z,99.90
2019-05-25T03:16:58.274Z,99.90
2019-05-25T03:19:27.687Z,99.90
2019-05-25T03:21:57.062Z,99.90
2019-05-25T03:24:26.431Z,99.90
2019-05-25T03:26:55.794Z,99.90
2019-05-25T03:29:26.466Z,99.90
2019-05-25T03:31:55.889Z,99.90
2019-05-25T03:34:25.396Z,99.90
2019-05-25T03:36:54.824Z,99.90
2019-05-25T03:39:24.328Z,99.90
2019-05-25T03:41:53.747Z,99.90
2019-05-25T03:44:23.085Z,99.90
2019-05-25T03:46:52.466Z,99.90
2019-05-25T03:49:21.835Z,99.90
2019-05-25T03:51:51.226Z,99.90
2019-05-25T03:54:20.593Z,99.90
2019-05-25T03:56:50.069Z,99.90
2019-05-25T03:59:19.543Z,99.90
2019-05-25T04:01:48.919Z,99.90
2019-05-25T04:04:19.870Z,99.90
2019-05-25T04:06:49.258Z,99.90
2019-05-25T04:09:22.687Z,99.90
2019-05-25T04:11:51.315Z,99.90
2019-05-25T04:14:23.603Z,99.90
2019-05-25T04:16:57.683Z,99.90
2019-05-25T04:19:36.896Z,99.90
2019-05-25T04:22:04.762Z,99.90
2019-05-25T04:24:34.113Z,99.90
2019-05-25T04:27:03.508Z,99.90
2019-05-25T04:29:35.890Z,99.90
2019-05-25T04:32:09.974Z,99.90
2019-05-25T04:34:41.011Z,99.90
2019-05-25T04:37:13.331Z,99.90
2019-05-25T04:39:42.789Z,99.90
2019-05-25T04:42:15.534Z,99.90
2019-05-25T04:44:47.050Z,99.90
2019-05-25T04:47:26.987Z,99.90
2019-05-25T04:49:53.316Z,99.90
2019-05-25T04:52:22.794Z,99.90
2019-05-25T04:54:53.824Z,99.90
2019-05-25T04:57:26.349Z,99.90
2019-05-25T04:59:55.746Z,99.90
2019-05-25T05:02:29.133Z,99.90
2019-05-25T05:04:58.521Z,99.90
2019-05-25T05:07:27.979Z,99.90
2019-05-25T05:10:02.804Z,99.90
2019-05-25T05:12:28.482Z,99.90
2019-05-25T05:14:57.850Z,99.90
2019-05-25T05:17:27.263Z,99.90
2019-05-25T05:19:56.628Z,99.90
2019-05-25T05:22:26.070Z,99.90
2019-05-25T05:24:55.442Z,99.90
2019-05-25T05:27:24.836Z,99.90
2019-05-25T05:29:54.227Z,99.90
2019-05-25T05:32:27.666Z,99.90
2019-05-25T05:34:54.922Z,99.90
2019-05-25T05:37:26.611Z,99.90
2019-05-25T05:39:57.891Z,99.90
2019-05-25T05:42:30.786Z,99.90
2019-05-25T05:45:03.052Z,99.90
2019-05-25T05:47:35.669Z,99.90
2019-05-25T05:50:08.474Z,99.90
2019-05-25T05:52:39.943Z,99.90
2019-05-25T05:55:12.061Z,99.90
2019-05-25T05:57:41.443Z,99.90
2019-05-25T06:00:12.558Z,99.90
2019-05-25T06:02:41.966Z,99.90
2019-05-25T06:05:11.597Z,99.90
2019-05-25T06:07:41.004Z,99.90
2019-05-25T06:10:11.036Z,99.90
2019-05-25T06:12:40.460Z,99.90
2019-05-25T06:15:10.401Z,99.90
2019-05-25T06:17:39.870Z,99.90
2019-05-25T06:20:10.463Z,99.90
2019-05-25T06:22:39.959Z,99.90
2019-05-25T06:25:10.509Z,99.90
2019-05-25T06:27:40.199Z,99.90
2019-05-25T06:30:10.944Z,99.90
2019-05-25T06:32:40.403Z,99.90
2019-05-25T06:35:10.992Z,99.90
2019-05-25T06:37:40.499Z,99.90
2019-05-25T06:40:10.912Z,99.90
2019-05-25T06:42:40.619Z,99.90
2019-05-25T06:45:10.694Z,99.90
2019-05-25T06:47:40.071Z,99.90
2019-05-25T06:50:11.022Z,99.90
2019-05-25T06:52:40.633Z,99.90
2019-05-25T06:55:10.617Z,99.90
2019-05-25T06:57:43.529Z,99.90
2019-05-25T07:00:12.165Z,99.90
2019-05-25T07:02:42.251Z,99.90
2019-05-25T07:05:12.986Z,99.90
2019-05-25T07:07:42.707Z,99.90
2019-05-25T07:10:12.808Z,99.90
2019-05-25T07:12:42.215Z,99.90
2019-05-25T07:15:14.143Z,99.90
2019-05-25T07:17:43.724Z,99.90
2019-05-25T07:20:15.577Z,99.90
2019-05-25T07:22:44.949Z,99.90
2019-05-25T07:25:16.127Z,99.90
2019-05-25T07:27:58.102Z,99.90
2019-05-25T07:30:16.946Z,99.90
2019-05-25T07:32:46.384Z,99.90
2019-05-25T07:35:16.026Z,99.90
2019-05-25T07:37:45.412Z,99.90
2019-05-25T07:40:15.384Z,99.90
2019-05-25T07:42:44.777Z,99.90
2019-05-25T07:45:15.781Z,98.60
2019-05-25T07:47:45.253Z,97.60
2019-05-25T07:50:15.626Z,94.90
2019-05-25T07:52:45.046Z,92.20
2019-05-25T07:55:14.481Z,88.00
2019-05-25T07:57:43.876Z,86.90
2019-05-25T08:00:14.462Z,86.60
2019-05-25T08:02:43.917Z,85.60
2019-05-25T08:05:13.711Z,80.60
2019-05-25T08:07:43.097Z,77.50
2019-05-25T08:10:13.086Z,71.00
2019-05-25T08:12:42.472Z,71.00
2019-05-25T08:15:12.660Z,69.80
2019-05-25T08:17:42.100Z,67.30
2019-05-25T08:20:12.753Z,66.20
2019-05-25T08:22:42.156Z,64.80
2019-05-25T08:25:11.845Z,64.20
2019-05-25T08:27:41.252Z,65.50
2019-05-25T08:30:12.484Z,68.60
2019-05-25T08:32:41.906Z,69.70
2019-05-25T08:35:11.989Z,70.10
2019-05-25T08:37:41.415Z,71.50
2019-05-25T08:40:11.824Z,72.10
2019-05-25T08:42:41.218Z,73.30
2019-05-25T08:45:11.309Z,75.20
2019-05-25T08:47:40.683Z,76.00
2019-05-25T08:50:10.707Z,76.60
2019-05-25T08:52:40.059Z,77.20
2019-05-25T08:55:10.237Z,79.30
2019-05-25T08:57:39.651Z,80.20
2019-05-25T09:00:10.104Z,76.00
2019-05-25T09:02:39.495Z,79.50
2019-05-25T09:05:09.584Z,81.60
2019-05-25T09:07:38.978Z,82.30
2019-05-25T09:10:08.922Z,82.10
2019-05-25T09:12:38.419Z,81.10
2019-05-25T09:15:08.230Z,82.40
2019-05-25T09:17:37.718Z,82.60
2019-05-25T09:20:08.955Z,82.70
2019-05-25T09:22:39.885Z,83.40
2019-05-25T09:25:12.335Z,82.60
2019-05-25T09:27:41.764Z,82.60
2019-05-25T09:30:11.774Z,83.50
2019-05-25T09:32:42.707Z,83.30
2019-05-25T09:35:13.187Z,83.40
2019-05-25T09:37:44.139Z,82.50
2019-05-25T09:40:16.046Z,82.30
2019-05-25T09:42:47.032Z,82.30
2019-05-25T09:45:18.303Z,82.00
2019-05-25T09:47:47.807Z,82.30
2019-05-25T09:50:17.423Z,82.90
2019-05-25T09:52:46.859Z,83.90
2019-05-25T09:55:16.313Z,83.70
2019-05-25T09:57:45.704Z,83.70
2019-05-25T10:00:16.998Z,84.50
2019-05-25T10:02:48.816Z,84.20
2019-05-25T10:05:19.264Z,85.10
2019-05-25T10:07:48.913Z,85.00
2019-05-25T10:10:20.058Z,85.00
2019-05-25T10:12:49.450Z,85.00
2019-05-25T10:15:19.104Z,85.50
2019-05-25T10:17:48.466Z,86.00
2019-05-25T10:20:19.401Z,86.60
2019-05-25T10:22:48.716Z,86.90
2019-05-25T10:25:18.414Z,85.70
2019-05-25T10:27:47.813Z,85.40
2019-05-25T10:30:19.401Z,86.20
2019-05-25T10:32:48.839Z,85.80
2019-05-25T10:35:18.479Z,85.30
2019-05-25T10:37:47.941Z,85.60
2019-05-25T10:40:17.650Z,85.80
2019-05-25T10:42:47.045Z,86.10
2019-05-25T10:45:17.037Z,85.40
2019-05-25T10:47:46.450Z,85.00
2019-05-25T10:50:16.745Z,84.00
2019-05-25T10:52:46.140Z,85.10
2019-05-25T10:55:17.407Z,86.20
2019-05-25T10:57:46.805Z,86.70
2019-05-25T11:00:18.598Z,85.70
2019-05-25T11:02:48.005Z,85.60
2019-05-25T11:05:19.237Z,85.90
2019-05-25T11:07:48.602Z,84.70
2019-05-25T11:10:19.017Z,85.40
2019-05-25T11:12:48.387Z,85.20
2019-05-25T11:15:18.003Z,83.50
2019-05-25T11:17:47.637Z,83.00
2019-05-25T11:20:18.213Z,84.00
2019-05-25T11:22:47.595Z,82.30
2019-05-25T11:25:17.360Z,83.60
2019-05-25T11:27:46.916Z,83.70
2019-05-25T11:30:18.025Z,82.90
2019-05-25T11:32:47.477Z,82.80
2019-05-25T11:35:24.207Z,82.30
2019-05-25T11:37:53.672Z,82.10
2019-05-25T11:40:23.774Z,82.00
2019-05-25T11:42:53.150Z,82.90
2019-05-25T11:45:23.142Z,83.30
2019-05-25T11:47:52.527Z,83.00
2019-05-25T11:50:22.470Z,83.40
2019-05-25T11:52:53.486Z,84.00
2019-05-25T11:55:23.075Z,84.80
2019-05-25T11:57:52.519Z,84.20
2019-05-25T12:00:25.479Z,84.20
2019-05-25T12:02:54.352Z,84.60
2019-05-25T12:05:23.751Z,82.60
2019-05-25T12:07:53.210Z,82.80
2019-05-25T12:10:24.834Z,82.30
2019-05-25T12:12:54.216Z,82.70
2019-05-25T12:15:25.216Z,81.40
2019-05-25T12:17:54.639Z,81.00
2019-05-25T12:20:24.285Z,82.20
2019-05-25T12:22:53.766Z,82.20
2019-05-25T12:25:23.224Z,79.10
2019-05-25T12:27:52.749Z,79.70
2019-05-25T12:30:23.060Z,80.60
2019-05-25T12:32:52.447Z,79.60
2019-05-25T12:35:22.079Z,78.50
2019-05-25T12:37:51.548Z,77.10
2019-05-25T12:40:23.777Z,77.60
2019-05-25T12:42:53.162Z,76.40
2019-05-25T12:45:26.104Z,74.60
2019-05-25T12:47:55.486Z,74.00
2019-05-25T12:50:26.290Z,73.00
2019-05-25T12:52:55.625Z,75.20
2019-05-25T12:55:25.009Z,73.60
2019-05-25T12:57:55.939Z,74.20
2019-05-25T13:00:25.394Z,73.80
2019-05-25T13:02:54.770Z,73.80
2019-05-25T13:05:33.538Z,72.30
2019-05-25T13:07:55.332Z,70.60
2019-05-25T13:10:29.378Z,70.30
2019-05-25T13:13:01.946Z,71.30
2019-05-25T13:15:29.984Z,68.60
2019-05-25T13:18:00.766Z,70.00
2019-05-25T13:20:31.766Z,69.60
2019-05-25T13:23:01.149Z,69.40
2019-05-25T13:25:30.564Z,68.80
2019-05-25T13:28:00.086Z,68.20
2019-05-25T13:30:29.477Z,67.80
2019-05-25T13:33:00.398Z,67.60
2019-05-25T13:35:29.789Z,66.80
2019-05-25T13:37:59.192Z,66.40
2019-05-25T13:40:28.582Z,66.90
2019-05-25T13:42:57.987Z,67.70
2019-05-25T13:45:28.498Z,67.30
2019-05-25T13:47:57.857Z,67.40
2019-05-25T13:50:27.257Z,67.90
2019-05-25T13:52:56.665Z,67.60
2019-05-25T13:55:26.338Z,66.10
2019-05-25T13:57:57.364Z,66.30
2019-05-25T14:00:28.300Z,66.20
2019-05-25T14:02:57.666Z,67.50
2019-05-25T14:05:27.165Z,68.10
2019-05-25T14:07:58.051Z,68.80
2019-05-25T14:10:27.466Z,68.30
2019-05-25T14:12:56.835Z,68.70
2019-05-25T14:15:26.341Z,68.60
2019-05-25T14:17:55.701Z,68.50
2019-05-25T14:20:25.177Z,68.40
2019-05-25T14:22:54.707Z,68.40
2019-05-25T14:25:24.155Z,68.80
2019-05-25T14:27:53.616Z,69.30
2019-05-25T14:30:24.568Z,69.10
2019-05-25T14:32:53.990Z,70.10
2019-05-25T14:35:23.361Z,71.10
2019-05-25T14:37:52.824Z,71.10
2019-05-25T14:40:22.386Z,71.60
2019-05-25T14:42:51.775Z,72.00
2019-05-25T14:45:21.347Z,72.30
2019-05-25T14:47:50.741Z,72.70
2019-05-25T14:50:20.356Z,73.00
2019-05-25T14:52:49.735Z,72.90
2019-05-25T14:55:19.177Z,73.40
2019-05-25T14:57:48.713Z,75.10
2019-05-25T15:00:19.781Z,75.50
2019-05-25T15:02:49.186Z,74.40
2019-05-25T15:05:20.308Z,73.40
2019-05-25T15:07:49.656Z,69.60
2019-05-25T15:10:19.175Z,71.60
2019-05-25T15:12:50.380Z,71.80
2019-05-25T15:15:19.904Z,71.30
2019-05-25T15:17:49.312Z,70.90
2019-05-25T15:20:18.890Z,69.60
2019-05-25T15:22:48.280Z,71.40
2019-05-25T15:25:19.343Z,68.00
2019-05-25T15:27:48.713Z,70.50
2019-05-25T15:30:18.185Z,70.50
2019-05-25T15:32:48.813Z,70.00
2019-05-25T15:35:20.802Z,69.80
2019-05-25T15:37:50.472Z,68.60
2019-05-25T15:40:20.223Z,68.20
2019-05-25T15:42:49.675Z,68.60
2019-05-25T15:45:20.806Z,68.60
2019-05-25T15:47:50.289Z,69.00
2019-05-25T15:50:20.803Z,68.80
2019-05-25T15:52:50.191Z,68.20
2019-05-25T15:55:19.975Z,68.80
2019-05-25T15:57:49.374Z,69.40
2019-05-25T16:00:19.548Z,70.00
2019-05-25T16:02:48.927Z,70.10
2019-05-25T16:05:18.875Z,70.20
2019-05-25T16:07:51.822Z,69.20
2019-05-25T16:10:21.348Z,69.90
2019-05-25T16:12:50.802Z,71.10
2019-05-25T16:15:28.062Z,70.10
2019-05-25T16:17:57.630Z,69.80
2019-05-25T16:20:27.059Z,70.10
2019-05-25T16:22:56.464Z,70.90
2019-05-25T16:25:25.974Z,71.00
2019-05-25T16:27:55.388Z,70.90
2019-05-25T16:30:24.981Z,71.30
2019-05-25T16:33:11.825Z,70.00
2019-05-25T16:35:25.789Z,69.50
2019-05-25T16:37:57.128Z,69.40
2019-05-25T16:40:26.690Z,69.40
2019-05-25T16:42:57.766Z,70.50
2019-05-25T16:45:28.735Z,70.90
2019-05-25T16:47:58.155Z,71.00
2019-05-25T16:50:27.550Z,70.70
2019-05-25T16:52:57.018Z,70.40
2019-05-25T16:55:26.491Z,70.70
2019-05-25T16:57:58.742Z,68.70
2019-05-25T17:00:29.785Z,69.10
2019-05-25T17:03:02.017Z,70.00
2019-05-25T17:05:33.179Z,69.50
2019-05-25T17:08:04.104Z,69.80
2019-05-25T17:10:33.576Z,69.70
2019-05-25T17:13:03.172Z,69.70
2019-05-25T17:15:32.627Z,69.70
2019-05-25T17:18:04.637Z,70.20
2019-05-25T17:20:33.354Z,70.40
2019-05-25T17:23:02.804Z,70.10
2019-05-25T17:25:32.268Z,70.00
2019-05-25T17:28:01.678Z,70.40
2019-05-25T17:30:46.539Z,70.90
2019-05-25T17:33:16.140Z,69.80
2019-05-25T17:35:47.419Z,71.00
2019-05-25T17:38:18.629Z,70.80
2019-05-25T17:40:48.037Z,71.40
2019-05-25T17:43:17.464Z,71.50
2019-05-25T17:45:46.870Z,71.40
2019-05-25T17:48:16.280Z,71.40
2019-05-25T17:50:47.245Z,71.30
2019-05-25T17:53:19.738Z,71.60
2019-05-25T17:55:49.049Z,71.50
2019-05-25T17:58:19.987Z,71.50
2019-05-25T18:00:51.221Z,72.00
2019-05-25T18:03:20.913Z,71.80
2019-05-25T18:05:52.129Z,72.20
2019-05-25T18:08:21.595Z,72.30
2019-05-25T18:10:54.205Z,72.30
2019-05-25T18:13:23.494Z,72.60
2019-05-25T18:15:53.169Z,73.20
2019-05-25T18:18:22.609Z,73.10
2019-05-25T18:20:52.011Z,73.30
2019-05-25T18:23:21.488Z,73.40
2019-05-25T18:25:50.962Z,73.70
2019-05-25T18:28:20.319Z,73.90
2019-05-25T18:30:49.747Z,73.80
2019-05-25T18:33:20.680Z,74.00
2019-05-25T18:35:50.076Z,74.10
2019-05-25T18:38:19.545Z,74.40
2019-05-25T18:40:48.949Z,74.70
2019-05-25T18:43:18.333Z,75.20
2019-05-25T18:45:47.876Z,75.60
2019-05-25T18:48:17.270Z,75.90
2019-05-25T18:50:46.761Z,76.10
2019-05-25T18:53:16.251Z,76.30
2019-05-25T18:55:46.789Z,76.50
2019-05-25T18:58:16.170Z,76.80
2019-05-25T19:00:45.640Z,77.00
2019-05-25T19:03:15.137Z,77.20
2019-05-25T19:05:44.596Z,77.90
2019-05-25T19:08:13.991Z,78.40
2019-05-25T19:10:43.362Z,79.10
2019-05-25T19:13:12.722Z,79.50
2019-05-25T19:15:42.170Z,80.00
2019-05-25T19:18:11.561Z,80.50
2019-05-25T19:20:41.055Z,81.00
2019-05-25T19:23:10.454Z,81.50
2019-05-25T19:25:39.872Z,82.60
2019-05-25T19:28:10.832Z,83.00
2019-05-25T19:30:40.212Z,83.90
2019-05-25T19:33:09.628Z,84.40
2019-05-25T19:35:39.043Z,85.10
2019-05-25T19:38:08.440Z,85.30
2019-05-25T19:40:37.808Z,85.70
2019-05-25T19:43:07.214Z,86.20
2019-05-25T19:45:36.669Z,86.80
2019-05-25T19:48:07.758Z,87.50
2019-05-25T19:50:37.174Z,88.20
2019-05-25T19:53:06.594Z,88.80
2019-05-25T19:55:35.970Z,89.40
2019-05-25T19:58:07.199Z,90.30
2019-05-25T20:00:36.569Z,90.20
2019-05-25T20:03:06.151Z,90.40
2019-05-25T20:05:35.499Z,90.50
2019-05-25T20:08:05.065Z,90.60
2019-05-25T20:10:34.448Z,90.80
2019-05-25T20:13:05.425Z,91.00
2019-05-25T20:15:34.821Z,91.20
2019-05-25T20:18:04.332Z,91.40
2019-05-25T20:20:33.767Z,91.50
2019-05-25T20:23:06.133Z,91.50
2019-05-25T20:25:35.523Z,91.70
2019-05-25T20:28:05.025Z,91.90
2019-05-25T20:30:34.395Z,92.10
2019-05-25T20:33:03.907Z,92.30
2019-05-25T20:35:33.845Z,92.50
2019-05-25T20:38:03.367Z,92.70
2019-05-25T20:40:32.816Z,92.80
2019-05-25T20:43:02.197Z,93.00
2019-05-25T20:45:31.589Z,93.20
2019-05-25T20:48:01.023Z,93.30
2019-05-25T20:50:30.493Z,93.50
2019-05-25T20:52:59.945Z,93.70
2019-05-25T20:55:29.420Z,93.90
2019-05-25T20:57:58.857Z,94.30
2019-05-25T21:00:28.311Z,94.10
2019-05-25T21:03:05.864Z,94.50
2019-05-25T21:05:31.003Z,94.30
2019-05-25T21:08:00.412Z,94.50
2019-05-25T21:10:29.808Z,94.70
2019-05-25T21:12:59.296Z,94.80
2019-05-25T21:15:28.749Z,95.10
2019-05-25T21:17:58.312Z,95.40
2019-05-25T21:20:27.679Z,95.70
2019-05-25T21:22:57.091Z,95.90
2019-05-25T21:25:26.571Z,96.10
2019-05-25T21:27:56.028Z,96.30
2019-05-25T21:30:26.688Z,96.50
2019-05-25T21:32:56.112Z,96.70
2019-05-25T21:35:25.573Z,97.00
2019-05-25T21:37:56.596Z,97.20
2019-05-25T21:40:25.980Z,97.50
2019-05-25T21:42:55.396Z,97.80
2019-05-25T21:45:24.836Z,98.10
2019-05-25T21:47:56.288Z,98.20
2019-05-25T21:50:25.392Z,98.50
2019-05-25T21:52:54.842Z,98.80
2019-05-25T21:55:24.308Z,99.20
2019-05-25T21:57:53.683Z,99.40
2019-05-25T22:00:25.120Z,99.60
2019-05-25T22:02:54.521Z,99.70
2019-05-25T22:05:25.512Z,99.90
2019-05-25T22:07:54.916Z,99.90
2019-05-25T22:10:24.406Z,99.90
2019-05-25T22:12:53.809Z,99.90
2019-05-25T22:15:23.281Z,99.90
2019-05-25T22:17:52.648Z,99.90
2019-05-25T22:20:22.121Z,99.90
2019-05-25T22:22:51.512Z,99.90
2019-05-25T22:25:21.041Z,99.90
2019-05-25T22:27:50.464Z,99.90
2019-05-25T22:30:21.750Z,99.90
2019-05-25T22:32:51.159Z,99.90
2019-05-25T22:35:20.594Z,99.90
2019-05-25T22:37:50.055Z,99.90
2019-05-25T22:40:19.680Z,99.90
2019-05-25T22:42:49.045Z,99.90
2019-05-25T22:45:18.597Z,99.90
2019-05-25T22:47:50.845Z,99.90
2019-05-25T22:50:20.674Z,99.90
2019-05-25T22:52:50.316Z,99.90
2019-05-25T22:55:19.703Z,99.90
2019-05-25T22:57:49.102Z,99.90
2019-05-25T23:00:19.052Z,99.90
2019-05-25T23:02:48.463Z,99.90
2019-05-25T23:05:18.016Z,99.90
2019-05-25T23:07:47.425Z,99.90
2019-05-25T23:10:17.428Z,99.90
2019-05-25T23:12:46.825Z,99.90
2019-05-25T23:15:16.616Z,99.90
2019-05-25T23:17:45.994Z,99.90
2019-05-25T23:20:16.932Z,99.90
2019-05-25T23:22:46.316Z,99.90
2019-05-25T23:25:15.783Z,99.90
2019-05-25T23:27:45.158Z,99.90
2019-05-25T23:30:15.387Z,99.90
2019-05-25T23:32:44.789Z,99.90
2019-05-25T23:35:14.370Z,99.90
2019-05-25T23:37:43.769Z,99.90
2019-05-25T23:40:13.726Z,99.90
2019-05-25T23:42:43.123Z,99.90
2019-05-25T23:45:13.599Z,99.90
2019-05-25T23:47:43.008Z,99.90
2019-05-25T23:50:13.584Z,99.90
2019-05-25T23:52:42.964Z,99.90
2019-05-25T23:55:13.457Z,99.90
2019-05-25T23:57:42.828Z,99.90
